sensor_id;sensor_type;location;lat;lon;timestamp;pressure;altitude;pressure_sealevel;temperature;humidity
11971;BME280;6045;42.682;23.294;2022-09-27T00:00:33;93729.72;;;17.54;89.74
11971;BME280;6045;42.682;23.294;2022-09-27T00:03:00;93732.31;;;17.41;89.96
11971;BME280;6045;42.682;23.294;2022-09-27T00:05:27;93729.84;;;17.44;91.00
11971;BME280;6045;42.682;23.294;2022-09-27T00:07:54;93725.91;;;17.55;89.98
11971;BME280;6045;42.682;23.294;2022-09-27T00:10:21;93708.63;;;17.56;89.94
11971;BME280;6045;42.682;23.294;2022-09-27T00:12:49;93716.28;;;17.49;89.43
11971;BME280;6045;42.682;23.294;2022-09-27T00:15:18;93721.25;;;17.42;89.39
11971;BME280;6045;42.682;23.294;2022-09-27T00:17:45;93742.00;;;17.28;90.29
11971;BME280;6045;42.682;23.294;2022-09-27T00:20:16;93744.75;;;17.23;90.00
11971;BME280;6045;42.682;23.294;2022-09-27T00:22:45;93745.69;;;17.32;90.88
11971;BME280;6045;42.682;23.294;2022-09-27T00:25:13;93761.84;;;17.37;90.03
11971;BME280;6045;42.682;23.294;2022-09-27T00:27:40;93740.16;;;17.42;90.28
11971;BME280;6045;42.682;23.294;2022-09-27T00:30:07;93754.16;;;17.44;90.11
11971;BME280;6045;42.682;23.294;2022-09-27T00:32:36;93753.06;;;17.45;90.26
11971;BME280;6045;42.682;23.294;2022-09-27T00:35:04;93728.66;;;17.50;89.84
11971;BME280;6045;42.682;23.294;2022-09-27T00:37:31;93731.81;;;17.39;89.67
11971;BME280;6045;42.682;23.294;2022-09-27T00:39:58;93715.25;;;17.27;90.35
11971;BME280;6045;42.682;23.294;2022-09-27T00:42:25;93715.97;;;17.32;90.85
11971;BME280;6045;42.682;23.294;2022-09-27T00:45:05;93712.91;;;17.39;90.07
11971;BME280;6045;42.682;23.294;2022-09-27T00:47:37;93704.00;;;17.38;89.27
11971;BME280;6045;42.682;23.294;2022-09-27T00:50:12;93711.34;;;17.19;89.45
11971;BME280;6045;42.682;23.294;2022-09-27T00:52:44;93700.53;;;17.19;89.77
11971;BME280;6045;42.682;23.294;2022-09-27T00:55:19;93712.41;;;17.18;90.25
11971;BME280;6045;42.682;23.294;2022-09-27T00:57:46;93702.69;;;17.17;89.67
11971;BME280;6045;42.682;23.294;2022-09-27T01:00:14;93700.00;;;17.17;89.61
11971;BME280;6045;42.682;23.294;2022-09-27T01:02:46;93694.91;;;17.16;88.96
11971;BME280;6045;42.682;23.294;2022-09-27T01:05:16;93704.31;;;17.18;88.76
11971;BME280;6045;42.682;23.294;2022-09-27T01:07:45;93716.94;;;17.04;88.94
11971;BME280;6045;42.682;23.294;2022-09-27T01:10:13;93713.22;;;17.00;88.76
11971;BME280;6045;42.682;23.294;2022-09-27T01:12:52;93711.97;;;16.92;88.95
11971;BME280;6045;42.682;23.294;2022-09-27T01:15:28;93703.50;;;16.99;90.07
11971;BME280;6045;42.682;23.294;2022-09-27T01:18:11;93680.91;;;16.95;89.89
11971;BME280;6045;42.682;23.294;2022-09-27T01:21:07;93679.66;;;16.87;89.74
11971;BME280;6045;42.682;23.294;2022-09-27T01:23:57;93688.56;;;16.88;89.95
11971;BME280;6045;42.682;23.294;2022-09-27T01:26:40;93686.38;;;16.90;90.30
11971;BME280;6045;42.682;23.294;2022-09-27T01:29:14;93698.47;;;16.92;89.05
11971;BME280;6045;42.682;23.294;2022-09-27T01:31:50;93705.91;;;17.00;89.43
11971;BME280;6045;42.682;23.294;2022-09-27T01:34:23;93698.91;;;16.99;89.84
11971;BME280;6045;42.682;23.294;2022-09-27T01:36:56;93697.53;;;17.02;89.86
11971;BME280;6045;42.682;23.294;2022-09-27T01:43:43;93698.19;;;16.94;90.57
11971;BME280;6045;42.682;23.294;2022-09-27T01:46:22;93703.75;;;16.84;91.47
11971;BME280;6045;42.682;23.294;2022-09-27T01:48:53;93707.38;;;16.93;91.75
11971;BME280;6045;42.682;23.294;2022-09-27T01:54:51;93703.91;;;16.69;91.60
11971;BME280;6045;42.682;23.294;2022-09-27T01:57:24;93685.78;;;16.74;92.03
11971;BME280;6045;42.682;23.294;2022-09-27T01:59:57;93692.41;;;16.82;92.21
11971;BME280;6045;42.682;23.294;2022-09-27T02:02:27;93686.44;;;16.85;92.25
11971;BME280;6045;42.682;23.294;2022-09-27T02:05:10;93674.69;;;16.76;91.96
11971;BME280;6045;42.682;23.294;2022-09-27T02:07:45;93675.69;;;16.80;91.49
11971;BME280;6045;42.682;23.294;2022-09-27T02:10:16;93676.13;;;16.87;90.05
11971;BME280;6045;42.682;23.294;2022-09-27T02:12:50;93660.56;;;16.84;90.59
11971;BME280;6045;42.682;23.294;2022-09-27T02:15:22;93669.28;;;16.76;91.62
11971;BME280;6045;42.682;23.294;2022-09-27T02:17:57;93649.00;;;16.78;91.38
11971;BME280;6045;42.682;23.294;2022-09-27T02:20:29;93651.53;;;16.51;91.92
11971;BME280;6045;42.682;23.294;2022-09-27T02:23:09;93658.44;;;16.38;93.81
11971;BME280;6045;42.682;23.294;2022-09-27T02:25:43;93625.59;;;16.31;93.24
11971;BME280;6045;42.682;23.294;2022-09-27T02:28:18;93616.13;;;16.34;93.42
11971;BME280;6045;42.682;23.294;2022-09-27T02:30:47;93621.16;;;16.22;95.43
11971;BME280;6045;42.682;23.294;2022-09-27T02:33:14;93613.97;;;16.12;95.46
11971;BME280;6045;42.682;23.294;2022-09-27T02:35:43;93611.75;;;16.19;95.46
11971;BME280;6045;42.682;23.294;2022-09-27T02:38:10;93606.00;;;16.26;94.94
11971;BME280;6045;42.682;23.294;2022-09-27T02:40:43;93606.22;;;16.29;94.92
11971;BME280;6045;42.682;23.294;2022-09-27T02:43:11;93599.91;;;16.39;94.72
11971;BME280;6045;42.682;23.294;2022-09-27T02:45:50;93628.50;;;16.35;94.58
11971;BME280;6045;42.682;23.294;2022-09-27T02:48:23;93629.38;;;16.30;94.47
11971;BME280;6045;42.682;23.294;2022-09-27T02:51:12;93635.84;;;16.34;95.08
11971;BME280;6045;42.682;23.294;2022-09-27T02:53:52;93633.34;;;16.38;95.61
11971;BME280;6045;42.682;23.294;2022-09-27T02:56:28;93641.00;;;16.50;94.96
11971;BME280;6045;42.682;23.294;2022-09-27T02:59:06;93638.44;;;16.39;95.06
11971;BME280;6045;42.682;23.294;2022-09-27T03:01:45;93627.78;;;16.53;94.97
11971;BME280;6045;42.682;23.294;2022-09-27T03:04:18;93607.13;;;16.43;95.42
11971;BME280;6045;42.682;23.294;2022-09-27T03:06:49;93586.22;;;16.54;95.31
11971;BME280;6045;42.682;23.294;2022-09-27T03:09:18;93587.47;;;16.62;94.81
11971;BME280;6045;42.682;23.294;2022-09-27T03:11:45;93588.03;;;16.59;94.29
11971;BME280;6045;42.682;23.294;2022-09-27T03:14:12;93578.41;;;16.53;94.01
11971;BME280;6045;42.682;23.294;2022-09-27T03:16:38;93580.44;;;16.61;93.50
11971;BME280;6045;42.682;23.294;2022-09-27T03:19:05;93559.91;;;16.65;93.62
11971;BME280;6045;42.682;23.294;2022-09-27T03:21:32;93552.06;;;16.63;92.99
11971;BME280;6045;42.682;23.294;2022-09-27T03:24:01;93556.16;;;16.61;93.05
11971;BME280;6045;42.682;23.294;2022-09-27T03:26:28;93559.28;;;16.68;93.59
11971;BME280;6045;42.682;23.294;2022-09-27T03:28:56;93568.94;;;16.74;93.35
11971;BME280;6045;42.682;23.294;2022-09-27T03:31:23;93562.88;;;16.63;93.36
11971;BME280;6045;42.682;23.294;2022-09-27T03:33:49;93571.03;;;16.58;93.24
11971;BME280;6045;42.682;23.294;2022-09-27T03:36:16;93570.09;;;16.68;93.78
11971;BME280;6045;42.682;23.294;2022-09-27T03:38:43;93565.81;;;16.67;93.67
11971;BME280;6045;42.682;23.294;2022-09-27T03:41:12;93556.91;;;16.66;94.11
11971;BME280;6045;42.682;23.294;2022-09-27T03:43:42;93550.94;;;16.69;93.28
11971;BME280;6045;42.682;23.294;2022-09-27T03:46:09;93552.25;;;16.72;93.52
11971;BME280;6045;42.682;23.294;2022-09-27T03:48:36;93560.25;;;16.77;93.02
11971;BME280;6045;42.682;23.294;2022-09-27T03:51:03;93561.34;;;16.76;93.05
11971;BME280;6045;42.682;23.294;2022-09-27T03:53:32;93575.78;;;16.85;92.81
11971;BME280;6045;42.682;23.294;2022-09-27T03:56:00;93573.63;;;17.00;90.79
11971;BME280;6045;42.682;23.294;2022-09-27T03:58:29;93569.72;;;17.25;89.74
11971;BME280;6045;42.682;23.294;2022-09-27T04:00:58;93560.31;;;17.36;89.34
11971;BME280;6045;42.682;23.294;2022-09-27T04:03:25;93560.13;;;17.33;89.13
11971;BME280;6045;42.682;23.294;2022-09-27T04:05:53;93563.72;;;17.28;89.28
11971;BME280;6045;42.682;23.294;2022-09-27T04:08:20;93554.59;;;17.24;89.89
11971;BME280;6045;42.682;23.294;2022-09-27T04:10:48;93573.50;;;17.56;90.04
11971;BME280;6045;42.682;23.294;2022-09-27T04:13:15;93567.03;;;17.85;88.50
11971;BME280;6045;42.682;23.294;2022-09-27T04:15:43;93559.38;;;18.14;87.76
11971;BME280;6045;42.682;23.294;2022-09-27T04:18:10;93559.34;;;18.41;84.79
11971;BME280;6045;42.682;23.294;2022-09-27T04:20:37;93551.13;;;18.60;83.71
11971;BME280;6045;42.682;23.294;2022-09-27T04:23:04;93545.16;;;18.71;83.46
11971;BME280;6045;42.682;23.294;2022-09-27T04:25:31;93559.09;;;18.78;82.83
11971;BME280;6045;42.682;23.294;2022-09-27T04:27:58;93554.84;;;18.86;82.60
11971;BME280;6045;42.682;23.294;2022-09-27T04:30:27;93550.09;;;19.13;81.44
11971;BME280;6045;42.682;23.294;2022-09-27T04:32:55;93555.56;;;19.36;79.13
11971;BME280;6045;42.682;23.294;2022-09-27T04:35:23;93556.88;;;19.47;79.04
11971;BME280;6045;42.682;23.294;2022-09-27T04:38:07;93559.19;;;19.62;78.49
11971;BME280;6045;42.682;23.294;2022-09-27T04:40:34;93550.50;;;19.82;78.11
11971;BME280;6045;42.682;23.294;2022-09-27T04:43:01;93562.47;;;19.81;76.66
11971;BME280;6045;42.682;23.294;2022-09-27T04:45:29;93560.16;;;19.97;78.00
11971;BME280;6045;42.682;23.294;2022-09-27T04:47:57;93563.03;;;20.00;76.47
11971;BME280;6045;42.682;23.294;2022-09-27T04:50:24;93560.53;;;19.73;76.07
11971;BME280;6045;42.682;23.294;2022-09-27T04:52:52;93565.63;;;19.44;77.06
11971;BME280;6045;42.682;23.294;2022-09-27T04:58:40;93575.22;;;18.83;80.19
11971;BME280;6045;42.682;23.294;2022-09-27T05:01:09;93569.75;;;18.61;81.22
11971;BME280;6045;42.682;23.294;2022-09-27T05:03:37;93561.47;;;18.44;81.88
11971;BME280;6045;42.682;23.294;2022-09-27T05:06:05;93557.25;;;18.38;83.02
11971;BME280;6045;42.682;23.294;2022-09-27T05:08:32;93555.88;;;18.27;83.67
11971;BME280;6045;42.682;23.294;2022-09-27T05:10:59;93555.59;;;18.15;84.32
11971;BME280;6045;42.682;23.294;2022-09-27T05:13:25;93545.69;;;17.97;84.96
11971;BME280;6045;42.682;23.294;2022-09-27T05:15:52;93529.97;;;17.85;86.32
11971;BME280;6045;42.682;23.294;2022-09-27T05:18:19;93531.09;;;17.70;87.13
11971;BME280;6045;42.682;23.294;2022-09-27T05:20:48;93537.75;;;17.59;88.19
11971;BME280;6045;42.682;23.294;2022-09-27T05:23:15;93535.09;;;17.27;89.21
11971;BME280;6045;42.682;23.294;2022-09-27T05:25:41;93534.50;;;17.17;91.12
11971;BME280;6045;42.682;23.294;2022-09-27T05:28:09;93523.97;;;17.15;91.45
11971;BME280;6045;42.682;23.294;2022-09-27T05:30:36;93524.34;;;17.08;91.37
11971;BME280;6045;42.682;23.294;2022-09-27T05:33:03;93521.53;;;17.00;91.88
11971;BME280;6045;42.682;23.294;2022-09-27T05:35:30;93534.63;;;16.93;91.29
11971;BME280;6045;42.682;23.294;2022-09-27T05:37:59;93537.44;;;17.01;91.10
11971;BME280;6045;42.682;23.294;2022-09-27T05:40:27;93528.06;;;17.13;90.24
11971;BME280;6045;42.682;23.294;2022-09-27T05:42:54;93546.47;;;17.24;89.74
11971;BME280;6045;42.682;23.294;2022-09-27T05:45:23;93545.78;;;17.19;89.47
11971;BME280;6045;42.682;23.294;2022-09-27T05:47:54;93539.59;;;17.18;89.66
11971;BME280;6045;42.682;23.294;2022-09-27T05:50:22;93535.75;;;17.05;89.34
11971;BME280;6045;42.682;23.294;2022-09-27T05:52:49;93550.69;;;17.17;89.54
11971;BME280;6045;42.682;23.294;2022-09-27T05:55:18;93540.44;;;17.00;89.70
11971;BME280;6045;42.682;23.294;2022-09-27T05:57:56;93555.03;;;16.99;90.06
11971;BME280;6045;42.682;23.294;2022-09-27T06:00:23;93548.63;;;16.95;90.43
11971;BME280;6045;42.682;23.294;2022-09-27T06:02:55;93542.63;;;16.98;91.05
11971;BME280;6045;42.682;23.294;2022-09-27T06:05:23;93539.53;;;16.91;92.02
11971;BME280;6045;42.682;23.294;2022-09-27T06:07:51;93553.00;;;16.91;93.07
11971;BME280;6045;42.682;23.294;2022-09-27T06:10:19;93556.44;;;16.78;92.73
11971;BME280;6045;42.682;23.294;2022-09-27T06:12:46;93553.44;;;16.79;93.02
11971;BME280;6045;42.682;23.294;2022-09-27T06:15:20;93537.97;;;16.85;93.77
11971;BME280;6045;42.682;23.294;2022-09-27T06:17:47;93555.09;;;16.94;94.39
11971;BME280;6045;42.682;23.294;2022-09-27T06:20:14;93563.00;;;16.90;94.78
11971;BME280;6045;42.682;23.294;2022-09-27T06:22:42;93547.69;;;16.86;95.07
11971;BME280;6045;42.682;23.294;2022-09-27T06:25:10;93537.13;;;17.03;95.42
11971;BME280;6045;42.682;23.294;2022-09-27T06:27:39;93535.38;;;17.12;95.62
11971;BME280;6045;42.682;23.294;2022-09-27T06:30:06;93540.16;;;17.15;95.89
11971;BME280;6045;42.682;23.294;2022-09-27T06:32:33;93541.78;;;17.16;94.29
11971;BME280;6045;42.682;23.294;2022-09-27T06:35:01;93533.59;;;17.21;94.74
11971;BME280;6045;42.682;23.294;2022-09-27T06:37:29;93545.91;;;17.27;94.99
11971;BME280;6045;42.682;23.294;2022-09-27T06:39:56;93547.59;;;17.23;94.67
11971;BME280;6045;42.682;23.294;2022-09-27T06:42:23;93523.78;;;17.12;94.95
11971;BME280;6045;42.682;23.294;2022-09-27T06:44:56;93533.97;;;17.15;95.43
11971;BME280;6045;42.682;23.294;2022-09-27T06:47:23;93548.56;;;17.14;95.62
11971;BME280;6045;42.682;23.294;2022-09-27T06:49:50;93552.41;;;16.94;96.34
11971;BME280;6045;42.682;23.294;2022-09-27T06:52:17;93539.25;;;17.06;97.14
11971;BME280;6045;42.682;23.294;2022-09-27T06:54:44;93540.44;;;17.00;97.07
11971;BME280;6045;42.682;23.294;2022-09-27T06:57:11;93520.94;;;17.03;97.25
11971;BME280;6045;42.682;23.294;2022-09-27T07:00:01;93537.06;;;17.08;95.45
11971;BME280;6045;42.682;23.294;2022-09-27T07:02:45;93542.53;;;17.03;94.35
11971;BME280;6045;42.682;23.294;2022-09-27T07:05:12;93552.03;;;17.00;94.29
11971;BME280;6045;42.682;23.294;2022-09-27T07:07:39;93561.84;;;17.10;94.32
11971;BME280;6045;42.682;23.294;2022-09-27T07:10:07;93550.28;;;17.09;94.76
11971;BME280;6045;42.682;23.294;2022-09-27T07:12:34;93547.38;;;17.20;95.58
11971;BME280;6045;42.682;23.294;2022-09-27T07:15:04;93565.38;;;17.24;95.00
11971;BME280;6045;42.682;23.294;2022-09-27T07:17:31;93549.59;;;17.31;95.12
11971;BME280;6045;42.682;23.294;2022-09-27T07:20:00;93549.91;;;17.30;94.07
11971;BME280;6045;42.682;23.294;2022-09-27T07:22:27;93554.91;;;17.36;93.93
11971;BME280;6045;42.682;23.294;2022-09-27T07:24:55;93537.81;;;17.41;93.62
11971;BME280;6045;42.682;23.294;2022-09-27T07:27:22;93560.72;;;17.43;94.56
11971;BME280;6045;42.682;23.294;2022-09-27T07:30:06;93572.84;;;17.46;94.33
11971;BME280;6045;42.682;23.294;2022-09-27T07:32:33;93569.19;;;17.55;94.72
11971;BME280;6045;42.682;23.294;2022-09-27T07:35:01;93567.88;;;17.53;94.12
11971;BME280;6045;42.682;23.294;2022-09-27T07:37:30;93548.56;;;17.59;94.03
11971;BME280;6045;42.682;23.294;2022-09-27T07:39:59;93555.09;;;17.58;94.78
11971;BME280;6045;42.682;23.294;2022-09-27T07:42:27;93576.22;;;17.70;93.81
11971;BME280;6045;42.682;23.294;2022-09-27T07:44:54;93562.63;;;17.75;93.50
11971;BME280;6045;42.682;23.294;2022-09-27T07:47:25;93582.22;;;17.81;94.14
11971;BME280;6045;42.682;23.294;2022-09-27T07:49:52;93584.66;;;17.82;92.88
11971;BME280;6045;42.682;23.294;2022-09-27T07:52:20;93574.72;;;17.77;93.29
11971;BME280;6045;42.682;23.294;2022-09-27T07:54:47;93572.72;;;17.69;92.63
11971;BME280;6045;42.682;23.294;2022-09-27T07:57:14;93584.16;;;17.48;94.02
11971;BME280;6045;42.682;23.294;2022-09-27T07:59:42;93557.34;;;17.38;93.11
11971;BME280;6045;42.682;23.294;2022-09-27T08:02:29;93568.31;;;17.28;93.94
11971;BME280;6045;42.682;23.294;2022-09-27T08:04:57;93566.13;;;17.30;95.61
11971;BME280;6045;42.682;23.294;2022-09-27T08:07:24;93544.09;;;17.23;94.68
11971;BME280;6045;42.682;23.294;2022-09-27T08:09:51;93550.72;;;17.30;94.58
11971;BME280;6045;42.682;23.294;2022-09-27T08:12:18;93547.94;;;17.35;94.88
11971;BME280;6045;42.682;23.294;2022-09-27T08:14:47;93544.44;;;17.48;94.76
11971;BME280;6045;42.682;23.294;2022-09-27T08:17:14;93542.00;;;17.65;94.60
11971;BME280;6045;42.682;23.294;2022-09-27T08:20:08;93536.38;;;17.75;94.71
11971;BME280;6045;42.682;23.294;2022-09-27T08:22:39;93542.78;;;17.80;94.71
11971;BME280;6045;42.682;23.294;2022-09-27T08:25:07;93555.72;;;17.83;95.05
11971;BME280;6045;42.682;23.294;2022-09-27T08:27:43;93546.69;;;17.73;96.18
11971;BME280;6045;42.682;23.294;2022-09-27T08:30:10;93545.59;;;17.88;95.89
11971;BME280;6045;42.682;23.294;2022-09-27T08:32:37;93536.19;;;17.99;94.84
11971;BME280;6045;42.682;23.294;2022-09-27T08:35:05;93533.94;;;18.15;94.20
11971;BME280;6045;42.682;23.294;2022-09-27T08:37:40;93523.53;;;18.22;92.67
11971;BME280;6045;42.682;23.294;2022-09-27T08:40:09;93509.63;;;18.86;93.16
11971;BME280;6045;42.682;23.294;2022-09-27T08:42:45;93523.94;;;19.62;89.34
11971;BME280;6045;42.682;23.294;2022-09-27T08:45:23;93522.69;;;19.68;88.97
11971;BME280;6045;42.682;23.294;2022-09-27T08:47:55;93516.28;;;20.03;87.12
11971;BME280;6045;42.682;23.294;2022-09-27T08:50:29;93519.06;;;19.81;87.15
11971;BME280;6045;42.682;23.294;2022-09-27T08:53:04;93514.59;;;19.76;85.24
11971;BME280;6045;42.682;23.294;2022-09-27T08:55:36;93525.34;;;19.90;83.90
11971;BME280;6045;42.682;23.294;2022-09-27T08:58:11;93523.31;;;20.04;83.12
11971;BME280;6045;42.682;23.294;2022-09-27T09:00:39;93520.16;;;20.19;82.48
11971;BME280;6045;42.682;23.294;2022-09-27T09:03:10;93510.50;;;20.53;81.03
11971;BME280;6045;42.682;23.294;2022-09-27T09:05:46;93511.94;;;20.93;79.96
11971;BME280;6045;42.682;23.294;2022-09-27T09:08:31;93526.00;;;20.95;80.37
11971;BME280;6045;42.682;23.294;2022-09-27T09:11:08;93508.59;;;20.96;81.09
11971;BME280;6045;42.682;23.294;2022-09-27T09:14:20;93521.28;;;21.55;80.03
11971;BME280;6045;42.682;23.294;2022-09-27T09:16:58;93501.94;;;22.53;78.40
11971;BME280;6045;42.682;23.294;2022-09-27T09:19:43;93512.84;;;23.36;75.67
11971;BME280;6045;42.682;23.294;2022-09-27T09:22:29;93515.88;;;23.34;73.94
11971;BME280;6045;42.682;23.294;2022-09-27T09:25:22;93501.75;;;23.41;69.59
11971;BME280;6045;42.682;23.294;2022-09-27T09:28:06;93506.97;;;23.25;71.72
11971;BME280;6045;42.682;23.294;2022-09-27T09:30:43;93497.13;;;23.33;72.57
11971;BME280;6045;42.682;23.294;2022-09-27T09:33:18;93492.69;;;23.61;71.28
11971;BME280;6045;42.682;23.294;2022-09-27T09:35:50;93501.91;;;23.68;69.34
11971;BME280;6045;42.682;23.294;2022-09-27T09:38:26;93474.88;;;24.00;67.25
11971;BME280;6045;42.682;23.294;2022-09-27T09:41:05;93485.09;;;24.03;68.23
11971;BME280;6045;42.682;23.294;2022-09-27T09:43:36;93502.38;;;23.83;70.44
11971;BME280;6045;42.682;23.294;2022-09-27T09:46:08;93508.09;;;24.50;65.09
11971;BME280;6045;42.682;23.294;2022-09-27T09:48:42;93506.13;;;25.54;62.92
11971;BME280;6045;42.682;23.294;2022-09-27T09:51:15;93510.09;;;25.29;63.68
11971;BME280;6045;42.682;23.294;2022-09-27T09:53:52;93501.13;;;24.65;64.51
11971;BME280;6045;42.682;23.294;2022-09-27T09:56:24;93500.72;;;24.51;65.99
11971;BME280;6045;42.682;23.294;2022-09-27T09:58:54;93506.09;;;24.35;65.74
11971;BME280;6045;42.682;23.294;2022-09-27T10:01:27;93495.25;;;24.02;67.12
11971;BME280;6045;42.682;23.294;2022-09-27T10:03:55;93514.19;;;23.74;67.88
11971;BME280;6045;42.682;23.294;2022-09-27T10:06:23;93493.16;;;23.75;67.37
11971;BME280;6045;42.682;23.294;2022-09-27T10:08:51;93493.13;;;23.30;69.49
11971;BME280;6045;42.682;23.294;2022-09-27T10:11:24;93487.59;;;23.06;71.78
11971;BME280;6045;42.682;23.294;2022-09-27T10:13:52;93496.13;;;23.04;72.63
11971;BME280;6045;42.682;23.294;2022-09-27T10:16:20;93485.41;;;22.99;69.58
11971;BME280;6045;42.682;23.294;2022-09-27T10:18:50;93482.94;;;23.06;69.84
11971;BME280;6045;42.682;23.294;2022-09-27T10:21:21;93459.56;;;23.17;69.09
11971;BME280;6045;42.682;23.294;2022-09-27T10:24:10;93456.06;;;23.50;67.70
11971;BME280;6045;42.682;23.294;2022-09-27T10:26:39;93464.75;;;23.88;67.38
11971;BME280;6045;42.682;23.294;2022-09-27T10:29:22;93471.34;;;24.35;63.94
11971;BME280;6045;42.682;23.294;2022-09-27T10:31:50;93468.13;;;24.82;63.27
11971;BME280;6045;42.682;23.294;2022-09-27T10:34:24;93476.34;;;24.58;62.28
11971;BME280;6045;42.682;23.294;2022-09-27T10:37:15;93474.97;;;24.03;63.27
11971;BME280;6045;42.682;23.294;2022-09-27T10:39:44;93467.94;;;23.78;64.25
11971;BME280;6045;42.682;23.294;2022-09-27T10:42:30;93477.06;;;23.37;66.55
11971;BME280;6045;42.682;23.294;2022-09-27T10:45:21;93457.50;;;23.35;67.02
11971;BME280;6045;42.682;23.294;2022-09-27T10:47:50;93463.50;;;23.73;68.58
11971;BME280;6045;42.682;23.294;2022-09-27T10:50:20;93454.09;;;24.83;65.36
11971;BME280;6045;42.682;23.294;2022-09-27T10:52:59;93454.63;;;26.19;60.88
11971;BME280;6045;42.682;23.294;2022-09-27T10:55:27;93437.53;;;27.14;55.93
11971;BME280;6045;42.682;23.294;2022-09-27T10:57:59;93432.81;;;27.98;53.34
11971;BME280;6045;42.682;23.294;2022-09-27T11:00:30;93425.72;;;28.69;51.61
11971;BME280;6045;42.682;23.294;2022-09-27T11:03:00;93415.78;;;29.20;49.12
11971;BME280;6045;42.682;23.294;2022-09-27T11:05:31;93408.47;;;29.71;48.00
11971;BME280;6045;42.682;23.294;2022-09-27T11:08:00;93415.47;;;29.65;49.27
11971;BME280;6045;42.682;23.294;2022-09-27T11:10:29;93417.66;;;29.49;49.71
11971;BME280;6045;42.682;23.294;2022-09-27T11:13:11;93415.25;;;30.25;46.05
11971;BME280;6045;42.682;23.294;2022-09-27T11:19:30;93424.00;;;30.34;45.46
11971;BME280;6045;42.682;23.294;2022-09-27T11:22:07;93419.38;;;29.24;47.02
11971;BME280;6045;42.682;23.294;2022-09-27T11:24:51;93404.22;;;28.25;49.58
11971;BME280;6045;42.682;23.294;2022-09-27T11:27:29;93406.16;;;27.76;51.78
11971;BME280;6045;42.682;23.294;2022-09-27T11:30:07;93397.72;;;27.88;51.68
11971;BME280;6045;42.682;23.294;2022-09-27T11:32:56;93393.44;;;28.13;52.46
11971;BME280;6045;42.682;23.294;2022-09-27T11:35:32;93391.84;;;28.65;50.53
11971;BME280;6045;42.682;23.294;2022-09-27T11:38:16;93372.19;;;29.62;48.08
11971;BME280;6045;42.682;23.294;2022-09-27T11:40:53;93369.69;;;30.38;45.90
11971;BME280;6045;42.682;23.294;2022-09-27T11:43:42;93360.25;;;30.42;46.49
11971;BME280;6045;42.682;23.294;2022-09-27T11:46:21;93363.03;;;31.36;43.37
11971;BME280;6045;42.682;23.294;2022-09-27T11:49:05;93363.53;;;32.43;41.70
11971;BME280;6045;42.682;23.294;2022-09-27T11:51:52;93358.69;;;32.93;39.55
11971;BME280;6045;42.682;23.294;2022-09-27T11:54:40;93358.28;;;33.05;38.27
11971;BME280;6045;42.682;23.294;2022-09-27T11:57:15;93365.28;;;33.31;37.91
11971;BME280;6045;42.682;23.294;2022-09-27T12:00:08;93355.00;;;34.01;35.45
11971;BME280;6045;42.682;23.294;2022-09-27T12:03:09;93354.78;;;32.87;36.95
11971;BME280;6045;42.682;23.294;2022-09-27T12:05:47;93356.47;;;32.00;39.91
11971;BME280;6045;42.682;23.294;2022-09-27T12:08:30;93331.94;;;31.67;39.49
11971;BME280;6045;42.682;23.294;2022-09-27T12:11:04;93325.25;;;31.96;39.38
11971;BME280;6045;42.682;23.294;2022-09-27T12:13:39;93341.84;;;32.14;41.96
11971;BME280;6045;42.682;23.294;2022-09-27T12:16:08;93347.25;;;32.95;40.87
11971;BME280;6045;42.682;23.294;2022-09-27T12:18:38;93321.81;;;33.87;36.63
11971;BME280;6045;42.682;23.294;2022-09-27T12:21:10;93322.88;;;34.00;36.81
11971;BME280;6045;42.682;23.294;2022-09-27T12:23:40;93326.34;;;33.63;36.26
11971;BME280;6045;42.682;23.294;2022-09-27T12:26:11;93280.03;;;32.84;37.20
11971;BME280;6045;42.682;23.294;2022-09-27T12:28:47;93290.03;;;32.50;38.02
11971;BME280;6045;42.682;23.294;2022-09-27T12:31:19;93289.28;;;32.38;37.47
11971;BME280;6045;42.682;23.294;2022-09-27T12:33:55;93277.25;;;32.84;36.25
11971;BME280;6045;42.682;23.294;2022-09-27T12:36:29;93280.69;;;33.16;36.15
11971;BME280;6045;42.682;23.294;2022-09-27T12:39:01;93261.53;;;33.39;35.65
11971;BME280;6045;42.682;23.294;2022-09-27T12:41:34;93273.06;;;33.31;37.36
11971;BME280;6045;42.682;23.294;2022-09-27T12:44:04;93250.75;;;33.52;34.71
11971;BME280;6045;42.682;23.294;2022-09-27T12:46:37;93272.13;;;33.58;35.42
11971;BME280;6045;42.682;23.294;2022-09-27T12:49:13;93255.59;;;33.92;34.91
11971;BME280;6045;42.682;23.294;2022-09-27T12:51:45;93244.88;;;33.46;34.98
11971;BME280;6045;42.682;23.294;2022-09-27T12:54:29;93255.44;;;32.96;35.60
11971;BME280;6045;42.682;23.294;2022-09-27T12:57:02;93244.56;;;32.54;36.59
11971;BME280;6045;42.682;23.294;2022-09-27T12:59:41;93237.50;;;32.25;37.00
11971;BME280;6045;42.682;23.294;2022-09-27T13:02:28;93264.69;;;32.69;37.15
11971;BME280;6045;42.682;23.294;2022-09-27T13:08:27;93263.19;;;33.26;37.18
11971;BME280;6045;42.682;23.294;2022-09-27T13:11:06;93297.72;;;33.11;36.87
11971;BME280;6045;42.682;23.294;2022-09-27T13:16:58;93267.38;;;30.71;34.30
11971;BME280;6045;42.682;23.294;2022-09-27T13:22:44;93265.66;;;28.93;38.81
11971;BME280;6045;42.682;23.294;2022-09-27T13:25:49;93264.97;;;28.36;39.35
11971;BME280;6045;42.682;23.294;2022-09-27T13:28:33;93249.81;;;27.64;41.32
11971;BME280;6045;42.682;23.294;2022-09-27T13:31:09;93246.66;;;27.62;42.31
11971;BME280;6045;42.682;23.294;2022-09-27T13:33:47;93231.28;;;27.35;42.79
11971;BME280;6045;42.682;23.294;2022-09-27T13:36:48;93231.91;;;27.02;42.32
11971;BME280;6045;42.682;23.294;2022-09-27T13:39:24;93233.91;;;27.28;43.26
11971;BME280;6045;42.682;23.294;2022-09-27T13:42:00;93246.97;;;27.57;42.13
11971;BME280;6045;42.682;23.294;2022-09-27T13:44:38;93254.88;;;28.14;40.77
11971;BME280;6045;42.682;23.294;2022-09-27T13:47:34;93272.75;;;28.01;40.80
11971;BME280;6045;42.682;23.294;2022-09-27T13:50:17;93272.44;;;28.06;40.59
11971;BME280;6045;42.682;23.294;2022-09-27T13:59:07;93273.63;;;26.31;45.26